createdAt,value
2023-02-16T00:01:26.496Z,37.70
2023-02-16T00:03:55.897Z,37.58
2023-02-16T00:06:24.152Z,37.59
2023-02-16T00:08:55.654Z,37.79
2023-02-16T00:11:46.396Z,37.85
2023-02-16T00:14:15.592Z,37.72
2023-02-16T00:16:43.678Z,37.50
2023-02-16T00:19:21.746Z,37.89
2023-02-16T00:21:50.835Z,37.51
2023-02-16T00:24:20.251Z,37.58
2023-02-16T00:26:49.191Z,37.54
2023-02-16T00:29:21.267Z,37.97
2023-02-16T00:31:50.531Z,37.84
2023-02-16T00:34:30.625Z,38.02
2023-02-16T00:37:00.196Z,37.60
2023-02-16T00:39:29.353Z,37.60
2023-02-16T00:42:00.567Z,37.90
2023-02-16T00:44:33.098Z,37.94
2023-02-16T00:47:03.602Z,37.61
2023-02-16T00:49:31.572Z,37.87
2023-02-16T00:51:59.437Z,37.79
2023-02-16T00:54:27.320Z,37.72
2023-02-16T00:56:57.201Z,37.70
2023-02-16T00:59:25.394Z,37.89
2023-02-16T01:01:53.232Z,37.84
2023-02-16T01:04:24.581Z,37.74
2023-02-16T01:07:10.037Z,37.71
2023-02-16T01:09:55.778Z,37.87
2023-02-16T01:12:25.168Z,37.76
2023-02-16T01:14:55.129Z,37.96
2023-02-16T01:17:24.510Z,37.92
2023-02-16T01:19:54.572Z,37.93
2023-02-16T01:22:22.560Z,37.66
2023-02-16T01:24:50.400Z,37.92
2023-02-16T01:27:19.555Z,37.85
2023-02-16T01:29:48.982Z,38.18
2023-02-16T01:32:17.128Z,37.94
2023-02-16T01:34:45.033Z,37.92
2023-02-16T01:37:16.478Z,37.98
2023-02-16T01:39:45.271Z,38.11
2023-02-16T01:42:24.028Z,37.99
2023-02-16T01:44:57.083Z,38.24
2023-02-16T01:47:34.179Z,38.60
2023-02-16T01:50:03.537Z,38.19
2023-02-16T01:52:35.769Z,38.06
2023-02-16T01:55:11.200Z,38.08
2023-02-16T01:57:44.607Z,38.43
2023-02-16T02:00:18.900Z,38.06
2023-02-16T02:02:50.570Z,38.25
2023-02-16T02:05:36.027Z,38.33
2023-02-16T02:08:25.072Z,38.18
2023-02-16T02:11:04.228Z,38.33
2023-02-16T02:13:39.500Z,38.14
2023-02-16T02:16:11.781Z,38.16
2023-02-16T02:18:40.006Z,38.44
2023-02-16T02:21:44.268Z,38.41
2023-02-16T02:24:54.906Z,38.49
2023-02-16T02:27:26.067Z,38.44
2023-02-16T02:30:11.001Z,38.60
2023-02-16T02:32:53.010Z,38.66
2023-02-16T02:35:34.118Z,38.33
2023-02-16T02:38:09.653Z,38.38
2023-02-16T02:40:48.346Z,38.46
2023-02-16T02:43:22.188Z,38.66
2023-02-16T02:45:55.108Z,38.42
2023-02-16T02:48:23.375Z,38.35
2023-02-16T02:51:12.539Z,38.31
2023-02-16T02:53:44.998Z,38.60
2023-02-16T02:56:34.184Z,38.63
2023-02-16T02:59:25.178Z,38.52
2023-02-16T03:01:57.511Z,38.67
2023-02-16T03:04:29.466Z,38.46
2023-02-16T03:06:59.610Z,38.25
2023-02-16T03:09:27.957Z,38.36
2023-02-16T03:12:15.658Z,38.53
2023-02-16T03:14:52.035Z,38.54
2023-02-16T03:17:41.822Z,38.76
2023-02-16T03:20:30.658Z,38.85
2023-02-16T03:23:16.892Z,38.79
2023-02-16T03:26:03.216Z,38.60
2023-02-16T03:28:51.992Z,38.62
2023-02-16T03:31:25.395Z,38.70
2023-02-16T03:33:54.776Z,38.71
2023-02-16T03:36:23.227Z,38.81
2023-02-16T03:38:51.336Z,38.56
2023-02-16T03:41:19.573Z,38.71
2023-02-16T03:43:47.353Z,38.88
2023-02-16T03:46:15.366Z,39.01
2023-02-16T03:48:44.633Z,38.90
2023-02-16T03:51:12.566Z,38.89
2023-02-16T03:53:40.381Z,38.74
2023-02-16T03:56:08.430Z,38.96
2023-02-16T03:58:36.320Z,39.16
2023-02-16T04:01:04.519Z,39.07
2023-02-16T04:03:32.636Z,38.84
2023-02-16T04:06:01.980Z,38.90
2023-02-16T04:08:29.972Z,39.06
2023-02-16T04:10:57.902Z,39.06
2023-02-16T04:13:24.872Z,39.13
2023-02-16T04:15:52.716Z,39.14
2023-02-16T04:18:20.654Z,39.16
2023-02-16T04:20:48.380Z,39.24
2023-02-16T04:23:17.585Z,39.10
2023-02-16T04:25:45.431Z,39.19
2023-02-16T04:28:13.299Z,39.22
2023-02-16T04:30:41.172Z,39.33
2023-02-16T04:33:09.277Z,39.36
2023-02-16T04:35:37.155Z,39.37
2023-02-16T04:38:05.073Z,39.42
2023-02-16T04:40:34.246Z,39.26
2023-02-16T04:43:02.105Z,39.38
2023-02-16T04:45:30.013Z,39.36
2023-02-16T04:47:57.866Z,39.39
2023-02-16T04:50:25.599Z,39.34
2023-02-16T04:52:53.429Z,39.24
2023-02-16T04:55:21.312Z,39.26
2023-02-16T04:57:50.577Z,39.41
2023-02-16T05:00:19.617Z,39.46
2023-02-16T05:02:47.744Z,39.69
2023-02-16T05:05:15.547Z,39.44
2023-02-16T05:07:43.509Z,39.16
2023-02-16T05:10:11.677Z,39.47
2023-02-16T05:12:57.036Z,39.60
2023-02-16T05:15:26.331Z,39.52
2023-02-16T05:17:54.096Z,39.41
2023-02-16T05:20:42.437Z,39.53
2023-02-16T05:23:10.254Z,39.77
2023-02-16T05:25:38.049Z,39.60
2023-02-16T05:28:06.188Z,39.68
2023-02-16T05:30:35.511Z,39.53
2023-02-16T05:33:03.492Z,39.64
2023-02-16T05:35:31.817Z,39.73
2023-02-16T05:37:59.646Z,39.53
2023-02-16T05:40:27.512Z,39.36
2023-02-16T05:42:55.905Z,39.68
2023-02-16T05:45:23.807Z,39.57
2023-02-16T05:47:55.976Z,39.51
2023-02-16T05:50:23.945Z,39.68
2023-02-16T05:52:51.765Z,39.61
2023-02-16T05:55:19.821Z,39.68
2023-02-16T05:57:47.735Z,39.67
2023-02-16T06:00:17.276Z,39.63
2023-02-16T06:02:47.085Z,39.70
2023-02-16T06:05:16.516Z,39.87
2023-02-16T06:07:46.742Z,39.71
2023-02-16T06:10:16.445Z,39.67
2023-02-16T06:12:45.000Z,39.85
2023-02-16T06:15:13.186Z,39.73
2023-02-16T06:17:40.997Z,39.83
2023-02-16T06:20:09.968Z,39.95
2023-02-16T06:22:39.059Z,39.65
2023-02-16T06:25:07.508Z,39.96
2023-02-16T06:27:35.408Z,39.82
2023-02-16T06:30:04.257Z,39.94
2023-02-16T06:32:33.539Z,39.84
2023-02-16T06:35:04.303Z,39.91
2023-02-16T06:37:32.115Z,39.83
2023-02-16T06:40:01.379Z,40.02
2023-02-16T06:42:29.184Z,39.92
2023-02-16T06:44:56.959Z,40.03
2023-02-16T06:47:24.875Z,39.86
2023-02-16T06:49:52.793Z,40.02
2023-02-16T06:52:20.857Z,39.94
2023-02-16T06:54:48.729Z,39.87
2023-02-16T06:57:17.958Z,40.02
2023-02-16T06:59:45.880Z,39.96
2023-02-16T07:02:13.854Z,40.00
2023-02-16T07:04:41.760Z,39.86
2023-02-16T07:07:09.725Z,40.00
2023-02-16T07:09:37.567Z,40.16
2023-02-16T07:12:07.216Z,40.14
2023-02-16T07:14:39.129Z,40.16
2023-02-16T07:17:10.131Z,40.52
2023-02-16T07:19:40.958Z,40.17
2023-02-16T07:22:09.121Z,39.98
2023-02-16T07:24:36.905Z,39.83
2023-02-16T07:27:05.442Z,39.94
2023-02-16T07:29:33.171Z,39.87
2023-02-16T07:32:03.088Z,39.85
2023-02-16T07:34:31.124Z,39.69
2023-02-16T07:36:59.507Z,39.57
2023-02-16T07:39:28.942Z,39.84
2023-02-16T07:41:56.960Z,39.86
2023-02-16T07:44:27.192Z,39.83
2023-02-16T07:46:54.949Z,39.64
2023-02-16T07:49:24.449Z,39.93
2023-02-16T07:51:52.344Z,39.98
2023-02-16T07:54:20.141Z,39.93
2023-02-16T07:56:48.033Z,39.84
2023-02-16T07:59:16.881Z,39.89
2023-02-16T08:01:44.715Z,39.95
2023-02-16T08:04:12.552Z,40.00
2023-02-16T08:06:41.783Z,39.93
2023-02-16T08:09:09.532Z,39.97
2023-02-16T08:11:37.358Z,40.01
2023-02-16T08:14:05.137Z,39.95
2023-02-16T08:16:33.007Z,40.00
2023-02-16T08:19:03.574Z,40.15
2023-02-16T08:21:33.606Z,39.89
2023-02-16T08:24:04.696Z,39.81
2023-02-16T08:26:36.761Z,40.06
2023-02-16T08:29:06.084Z,40.07
2023-02-16T08:31:36.604Z,40.00
2023-02-16T08:34:08.151Z,40.09
2023-02-16T08:36:38.524Z,39.93
2023-02-16T08:39:11.967Z,40.01
2023-02-16T08:41:40.147Z,40.05
2023-02-16T08:44:09.949Z,39.92
2023-02-16T08:46:41.043Z,39.98
2023-02-16T08:49:09.777Z,39.95
2023-02-16T08:51:41.509Z,40.19
2023-02-16T08:54:15.782Z,39.99
2023-02-16T08:56:46.106Z,40.01
2023-02-16T08:59:14.126Z,40.33
2023-02-16T09:01:41.933Z,40.22
2023-02-16T09:04:10.002Z,40.25
2023-02-16T09:06:39.312Z,40.23
2023-02-16T09:09:08.700Z,40.13
2023-02-16T09:11:38.464Z,40.19
2023-02-16T09:14:06.709Z,40.16
2023-02-16T09:16:35.439Z,40.35
2023-02-16T09:19:03.528Z,40.31
2023-02-16T09:21:33.390Z,40.40
2023-02-16T09:24:03.413Z,40.53
2023-02-16T09:26:33.740Z,40.34
2023-02-16T09:29:03.532Z,40.29
2023-02-16T09:31:34.254Z,40.29
2023-02-16T09:34:04.735Z,40.26
2023-02-16T09:36:32.968Z,40.30
2023-02-16T09:39:02.418Z,40.09
2023-02-16T09:41:44.215Z,39.85
2023-02-16T09:44:25.743Z,39.82
2023-02-16T09:46:57.832Z,40.26
2023-02-16T09:49:32.584Z,39.87
2023-02-16T09:52:07.202Z,40.05
2023-02-16T09:54:42.977Z,39.92
2023-02-16T09:57:20.853Z,40.07
2023-02-16T09:59:57.191Z,39.90
2023-02-16T10:02:39.113Z,39.85
2023-02-16T10:05:32.533Z,39.83
2023-02-16T10:08:02.942Z,40.30
2023-02-16T10:10:47.995Z,39.86
2023-02-16T10:13:26.013Z,39.64
2023-02-16T10:15:58.515Z,39.78
2023-02-16T10:18:31.040Z,39.54
2023-02-16T10:21:03.672Z,39.84
2023-02-16T10:23:38.001Z,40.31
2023-02-16T10:26:16.766Z,39.78
2023-02-16T10:28:48.406Z,39.13
2023-02-16T10:31:24.621Z,39.59
2023-02-16T10:34:05.379Z,39.63
2023-02-16T10:36:47.898Z,39.74
2023-02-16T10:39:22.244Z,39.52
2023-02-16T10:41:55.442Z,39.79
2023-02-16T10:44:28.119Z,39.66
2023-02-16T10:47:01.806Z,39.97
2023-02-16T10:49:32.262Z,39.86
2023-02-16T10:52:03.343Z,39.71
2023-02-16T10:54:33.791Z,39.75
2023-02-16T10:57:06.238Z,39.63
2023-02-16T10:59:39.103Z,39.87
2023-02-16T11:02:18.326Z,40.18
2023-02-16T11:04:48.670Z,39.89
2023-02-16T11:07:18.747Z,39.82
2023-02-16T11:09:51.106Z,39.83
2023-02-16T11:12:26.852Z,40.03
2023-02-16T11:14:57.882Z,39.79
2023-02-16T11:17:28.100Z,39.40
2023-02-16T11:20:01.814Z,39.79
2023-02-16T11:22:37.023Z,39.85
2023-02-16T11:25:25.384Z,39.84
2023-02-16T11:27:56.037Z,39.98
2023-02-16T11:30:33.400Z,39.99
2023-02-16T11:33:05.590Z,39.84
2023-02-16T11:35:42.064Z,40.00
2023-02-16T11:38:27.140Z,40.27
2023-02-16T11:40:56.312Z,40.23
2023-02-16T11:43:29.502Z,40.05
2023-02-16T11:45:59.952Z,40.26
2023-02-16T11:48:31.486Z,40.38
2023-02-16T11:51:02.882Z,40.20
2023-02-16T11:53:33.003Z,40.26
2023-02-16T11:56:19.012Z,40.48
2023-02-16T11:59:03.253Z,40.24
2023-02-16T12:01:44.914Z,40.66
2023-02-16T12:04:23.418Z,40.62
2023-02-16T12:06:58.809Z,40.35
2023-02-16T12:09:33.772Z,40.53
2023-02-16T12:12:11.157Z,40.37
2023-02-16T12:14:48.568Z,40.77
2023-02-16T12:17:41.999Z,40.50
2023-02-16T12:20:17.197Z,41.06
2023-02-16T12:22:48.561Z,40.51
2023-02-16T12:25:35.878Z,40.73
2023-02-16T12:28:13.419Z,40.45
2023-02-16T12:30:59.896Z,40.53
2023-02-16T12:33:40.086Z,40.60
2023-02-16T12:36:30.619Z,40.54
2023-02-16T12:39:10.124Z,40.93
2023-02-16T12:41:48.407Z,41.32
2023-02-16T12:44:22.052Z,41.06
2023-02-16T12:46:56.909Z,41.39
2023-02-16T12:49:29.458Z,41.69
2023-02-16T12:52:05.436Z,41.67
2023-02-16T12:54:40.150Z,41.64
2023-02-16T12:57:12.951Z,41.41
2023-02-16T12:59:47.071Z,41.65
2023-02-16T13:02:21.553Z,42.02
2023-02-16T13:04:57.037Z,41.54
2023-02-16T13:07:33.472Z,42.16
2023-02-16T13:10:05.831Z,41.54
2023-02-16T13:12:38.163Z,41.54
2023-02-16T13:15:14.347Z,42.05
2023-02-16T13:17:48.390Z,41.46
2023-02-16T13:20:20.012Z,42.01
2023-02-16T13:23:15.600Z,42.03
2023-02-16T13:26:17.904Z,42.08
2023-02-16T13:29:02.123Z,42.35
2023-02-16T13:31:53.554Z,42.45
2023-02-16T13:34:57.509Z,42.20
2023-02-16T13:37:42.229Z,42.44
2023-02-16T13:40:57.734Z,42.59
2023-02-16T13:43:33.902Z,42.41
2023-02-16T13:46:06.794Z,42.73
2023-02-16T13:48:40.868Z,42.46
2023-02-16T13:51:14.931Z,42.51
2023-02-16T13:53:52.421Z,42.31
2023-02-16T13:56:23.766Z,42.64
2023-02-16T13:58:54.025Z,42.78
2023-02-16T14:01:40.478Z,43.12
2023-02-16T14:04:14.583Z,42.79
2023-02-16T14:06:43.703Z,42.75
2023-02-16T14:09:34.704Z,43.30
2023-02-16T14:12:08.020Z,42.89
2023-02-16T14:14:45.186Z,43.03
2023-02-16T14:17:18.529Z,43.00
2023-02-16T14:19:54.576Z,43.51
2023-02-16T14:22:28.745Z,42.85
2023-02-16T14:24:59.754Z,43.11
2023-02-16T14:27:52.322Z,43.26
2023-02-16T14:30:29.068Z,42.97
2023-02-16T14:33:02.218Z,43.17
2023-02-16T14:35:36.675Z,42.86
2023-02-16T14:38:06.940Z,43.02
2023-02-16T14:40:46.352Z,43.21
2023-02-16T14:43:25.118Z,43.76
2023-02-16T14:46:23.433Z,43.51
2023-02-16T14:49:28.264Z,43.38
2023-02-16T14:52:38.861Z,43.38
2023-02-16T14:55:24.053Z,43.48
2023-02-16T14:57:58.377Z,43.21
2023-02-16T15:00:31.661Z,43.34
2023-02-16T15:03:08.615Z,42.95
2023-02-16T15:05:38.051Z,42.88
2023-02-16T15:08:13.132Z,43.00
2023-02-16T15:10:41.579Z,43.12
2023-02-16T15:13:09.782Z,42.84
2023-02-16T15:15:49.122Z,42.79
2023-02-16T15:18:27.555Z,42.74
2023-02-16T15:20:59.619Z,42.69
2023-02-16T15:23:31.692Z,42.46
2023-02-16T15:26:03.647Z,42.41
2023-02-16T15:28:36.208Z,42.64
2023-02-16T15:31:08.270Z,42.70
2023-02-16T15:33:41.475Z,42.35
2023-02-16T15:36:13.941Z,42.37
2023-02-16T15:38:55.532Z,42.42
2023-02-16T15:41:31.226Z,42.69
2023-02-16T15:44:02.787Z,42.29
2023-02-16T15:46:37.526Z,42.16
2023-02-16T15:49:19.268Z,42.61
2023-02-16T15:51:51.765Z,42.28
2023-02-16T15:54:27.128Z,42.36
2023-02-16T15:56:59.380Z,42.33
2023-02-16T15:59:35.910Z,42.24
2023-02-16T16:02:12.116Z,42.62
2023-02-16T16:04:43.769Z,42.27
2023-02-16T16:07:16.527Z,42.07
2023-02-16T16:09:48.539Z,42.64
2023-02-16T16:12:21.705Z,42.18
2023-02-16T16:14:54.712Z,42.12
2023-02-16T16:17:28.158Z,42.47
2023-02-16T16:20:00.167Z,41.97
2023-02-16T16:22:36.213Z,42.05
2023-02-16T16:25:32.610Z,42.60
2023-02-16T16:28:03.083Z,42.48
2023-02-16T16:30:35.772Z,42.21
2023-02-16T16:33:05.257Z,42.14
2023-02-16T16:35:42.729Z,42.16
2023-02-16T16:38:24.616Z,42.04
2023-02-16T16:40:54.898Z,42.32
2023-02-16T16:43:27.860Z,41.74
2023-02-16T16:45:59.075Z,41.93
2023-02-16T16:48:34.121Z,41.68
2023-02-16T16:51:13.781Z,41.85
2023-02-16T16:53:52.896Z,41.47
2023-02-16T16:56:21.914Z,41.53
2023-02-16T16:58:50.697Z,41.55
2023-02-16T17:01:22.042Z,41.88
2023-02-16T17:03:50.314Z,41.79
2023-02-16T17:06:23.517Z,41.62
2023-02-16T17:08:55.799Z,41.80
2023-02-16T17:11:28.789Z,41.67
2023-02-16T17:14:05.433Z,41.75
2023-02-16T17:16:45.416Z,41.61
2023-02-16T17:19:20.451Z,41.75
2023-02-16T17:21:51.878Z,41.64
2023-02-16T17:24:22.927Z,41.63
2023-02-16T17:26:51.108Z,41.62
2023-02-16T17:29:19.054Z,41.62
2023-02-16T17:31:48.841Z,41.42
2023-02-16T17:34:17.395Z,41.48
2023-02-16T17:36:45.415Z,41.29
2023-02-16T17:39:14.774Z,41.38
2023-02-16T17:41:42.728Z,41.51
2023-02-16T17:44:10.540Z,41.27
2023-02-16T17:46:38.431Z,41.42
2023-02-16T17:49:11.685Z,41.34
2023-02-16T17:51:42.135Z,41.64
2023-02-16T17:54:10.774Z,41.56
2023-02-16T17:56:41.739Z,41.13
2023-02-16T17:59:18.256Z,41.58
2023-02-16T18:01:46.766Z,41.48
2023-02-16T18:04:14.889Z,41.25
2023-02-16T18:06:42.957Z,41.64
2023-02-16T18:09:12.991Z,41.32
2023-02-16T18:11:42.636Z,41.08
2023-02-16T18:14:12.276Z,41.28
2023-02-16T18:16:40.894Z,41.50
2023-02-16T18:19:09.913Z,42.00
2023-02-16T18:21:38.824Z,41.98
2023-02-16T18:24:07.744Z,41.83
2023-02-16T18:26:35.964Z,41.88
2023-02-16T18:29:07.910Z,42.23
2023-02-16T18:31:35.968Z,42.27
2023-02-16T18:34:06.019Z,41.93
2023-02-16T18:36:34.115Z,41.88
2023-02-16T18:39:02.093Z,42.18
2023-02-16T18:41:30.009Z,41.98
2023-02-16T18:43:57.941Z,42.42
2023-02-16T18:46:27.624Z,42.02
2023-02-16T18:48:55.514Z,42.31
2023-02-16T18:51:25.931Z,41.90
2023-02-16T18:53:53.884Z,41.99
2023-02-16T18:56:23.996Z,42.09
2023-02-16T18:58:52.095Z,42.08
2023-02-16T19:01:33.578Z,42.17
2023-02-16T19:04:03.786Z,42.39
2023-02-16T19:06:34.508Z,42.08
2023-02-16T19:09:04.898Z,42.34
2023-02-16T19:11:33.800Z,42.25
2023-02-16T19:14:03.605Z,42.00
2023-02-16T19:16:33.119Z,42.07
2023-02-16T19:19:01.299Z,42.40
2023-02-16T19:21:31.711Z,42.09
2023-02-16T19:24:02.123Z,42.14
2023-02-16T19:26:32.955Z,42.35
2023-02-16T19:29:01.279Z,42.61
2023-02-16T19:31:31.227Z,42.71
2023-02-16T19:34:01.128Z,42.49
2023-02-16T19:36:32.058Z,42.56
2023-02-16T19:39:00.664Z,42.76
2023-02-16T19:41:31.475Z,42.70
2023-02-16T19:43:59.880Z,43.01
2023-02-16T19:46:28.194Z,42.63
2023-02-16T19:48:57.922Z,43.08
2023-02-16T19:51:28.072Z,43.27
2023-02-16T19:53:56.253Z,42.75
2023-02-16T19:56:26.610Z,43.15
2023-02-16T19:58:54.635Z,43.31
2023-02-16T20:01:25.065Z,42.84
2023-02-16T20:03:54.118Z,43.17
2023-02-16T20:06:24.062Z,42.89
2023-02-16T20:08:55.023Z,43.15
2023-02-16T20:11:24.963Z,42.89
2023-02-16T20:13:56.467Z,43.11
2023-02-16T20:16:26.318Z,43.36
2023-02-16T20:18:55.185Z,43.20
2023-02-16T20:21:25.530Z,43.56
2023-02-16T20:23:59.487Z,43.45
2023-02-16T20:26:29.461Z,43.28
2023-02-16T20:28:57.810Z,43.44
2023-02-16T20:31:28.442Z,43.71
2023-02-16T20:33:56.908Z,43.44
2023-02-16T20:36:24.899Z,43.39
2023-02-16T20:38:54.262Z,43.93
2023-02-16T20:41:23.505Z,43.54
2023-02-16T20:43:51.620Z,44.04
2023-02-16T20:46:20.500Z,43.63
2023-02-16T20:48:50.084Z,44.20
2023-02-16T20:51:18.806Z,43.91
2023-02-16T20:53:47.169Z,44.00
2023-02-16T20:56:20.525Z,44.26
2023-02-16T20:58:49.808Z,44.19
2023-02-16T21:01:21.435Z,44.52
2023-02-16T21:03:49.811Z,44.57
2023-02-16T21:06:17.939Z,44.01
2023-02-16T21:08:45.856Z,44.66
2023-02-16T21:11:13.969Z,44.37
2023-02-16T21:13:43.545Z,44.71
2023-02-16T21:16:11.934Z,44.37
2023-02-16T21:18:40.695Z,44.68
2023-02-16T21:21:09.598Z,44.63
2023-02-16T21:23:37.968Z,44.97
2023-02-16T21:26:06.921Z,44.93
2023-02-16T21:28:34.920Z,45.04
2023-02-16T21:31:06.380Z,45.18
2023-02-16T21:33:34.837Z,44.72
2023-02-16T21:36:07.289Z,45.34
2023-02-16T21:38:36.984Z,45.08
2023-02-16T21:41:23.773Z,45.00
2023-02-16T21:43:55.110Z,44.81
2023-02-16T21:46:24.667Z,45.11
2023-02-16T21:48:51.555Z,44.66
2023-02-16T21:51:21.735Z,45.10
2023-02-16T21:53:49.687Z,45.13
2023-02-16T21:56:33.807Z,45.79
2023-02-16T21:59:02.319Z,44.94
2023-02-16T22:01:34.080Z,45.63
2023-02-16T22:04:02.838Z,45.18
2023-02-16T22:06:33.219Z,45.30
2023-02-16T22:09:01.539Z,45.09
2023-02-16T22:11:29.464Z,45.20
2023-02-16T22:13:58.718Z,45.30
2023-02-16T22:16:28.462Z,45.34
2023-02-16T22:19:03.394Z,45.43
2023-02-16T22:21:32.165Z,45.15
2023-02-16T22:24:00.741Z,45.28
2023-02-16T22:26:31.364Z,45.73
2023-02-16T22:28:59.597Z,45.21
2023-02-16T22:31:29.055Z,45.12
2023-02-16T22:33:57.907Z,45.51
2023-02-16T22:36:27.338Z,45.62
2023-02-16T22:38:55.785Z,45.72
2023-02-16T22:41:24.481Z,45.51
2023-02-16T22:43:54.276Z,45.35
2023-02-16T22:46:23.366Z,45.62
2023-02-16T22:48:51.876Z,45.40
2023-02-16T22:51:21.702Z,45.28
2023-02-16T22:53:50.811Z,45.90
2023-02-16T22:56:20.392Z,45.79
2023-02-16T22:58:48.567Z,45.51
2023-02-16T23:01:19.388Z,45.61
2023-02-16T23:03:47.978Z,45.55
2023-02-16T23:06:17.417Z,45.50
2023-02-16T23:08:46.800Z,45.69
2023-02-16T23:11:16.102Z,45.44
2023-02-16T23:13:43.997Z,45.56
2023-02-16T23:16:14.243Z,45.89
2023-02-16T23:18:43.453Z,46.01
2023-02-16T23:21:17.001Z,45.93
2023-02-16T23:23:45.296Z,45.85
2023-02-16T23:26:13.618Z,45.93
2023-02-16T23:28:43.884Z,45.81
2023-02-16T23:31:13.640Z,45.75
2023-02-16T23:33:41.698Z,45.89
2023-02-16T23:36:10.419Z,46.01
2023-02-16T23:38:38.572Z,46.08
2023-02-16T23:41:08.651Z,46.04
2023-02-16T23:43:37.115Z,45.65
2023-02-16T23:46:07.003Z,45.90
2023-02-16T23:48:35.088Z,45.57
2023-02-16T23:51:02.889Z,45.77
2023-02-16T23:53:31.037Z,45.77
2023-02-16T23:55:59.827Z,46.16
2023-02-16T23:58:28.484Z,45.64
